Terminal Aerodrome Forecast
Issued by NWS

Home | Current Version | Previous Version | Text Only | Print | Product List | Glossary On
Versions: 1 2 3 4 5 6 7 8 9 10 11 12 13 14 15 16
000
FTUS44 KMAF 282000 AAB
TAFHOB
TAF AMD
KHOB 282013Z 2820/2918 07011G18KT P6SM SCT070 SCT250
     FM290200 09009KT P6SM BKN120 BKN150=

USA.gov is the U.S. government's official web portal to all federal, state and local government web resources and services.